Davenport, Iowa
Current Conditions -  °F | °C
As of 11:52 PM on Sunday 21 Dec 2014 (Local Time) from KDVN Reporting Station
Overcast Overcast  
Wind Chill: -3°   Ceiling: 5000
Heat Index:   Visibility: 9mi
Dew Point: -2°   Wind: 14mph
Humidity: 78%   Direction: 150°SSE
Pressure: 29.91"   Gusts: NA
Location:  41.54°N, 90.58°W
Report Text: KDVN 220552Z AUTO 15012KT 9SM OVC050 02/M02 A2991 RMK AO2 SLP133 60000 T00171017 10022 20017 400440006 56012
Loading
Personal Weather Stations






























Interactive Weather Map New forecast layout! Learn more

10-Day Weather Forecast

Advertisements
Track Severe Weather on mobile